Time;durP1;ratioP1;P1;durP2;ratioP2;P2;SDS_P1;SDS_P2;PMS_P1;PMS_P2;Temp;Humidity;BMP_temperature;BMP_pressure;BME280_temperature;BME280_humidity;BME280_pressure;Samples;Min_cycle;Max_cycle;Signal;HPM_P1;HPM_P2
2022/09/04 00:02:29;;;;;;;6.35;2.58;;;;;;;13.55;100.00;98454.50;5084169;28;20035;-69
2022/09/04 00:05:13;;;;;;;10.90;2.90;;;;;;;13.50;100.00;98460.84;5083832;28;20028;-69
2022/09/04 00:08:04;;;;;;;11.75;2.90;;;;;;;13.44;100.00;98466.38;5064325;28;20035;-69
2022/09/04 00:10:44;;;;;;;23.30;2.65;;;;;;;13.41;100.00;98463.84;5063860;28;20055;-69
2022/09/04 00:13:18;;;;;;;29.30;2.75;;;;;;;13.50;100.00;98467.00;5063955;28;20035;-69
2022/09/04 00:15:50;;;;;;;41.13;3.53;;;;;;;13.47;100.00;98468.88;5063946;28;20082;-69
2022/09/04 00:18:35;;;;;;;19.38;2.30;;;;;;;13.52;100.00;98481.06;5063968;28;20029;-69
2022/09/04 00:21:20;;;;;;;8.57;2.00;;;;;;;13.51;100.00;98478.47;5063951;28;20189;-69
2022/09/04 00:23:59;;;;;;;4.75;2.00;;;;;;;13.33;100.00;98481.72;5063905;28;20324;-69
2022/09/04 00:26:44;;;;;;;21.13;2.17;;;;;;;13.35;100.00;98475.44;5063832;28;20013;-69
2022/09/04 00:29:20;;;;;;;24.88;2.28;;;;;;;13.32;100.00;98478.19;5063830;28;20056;-69
2022/09/04 00:31:53;;;;;;;20.80;2.67;;;;;;;13.29;100.00;98477.44;5063827;28;20017;-69
2022/09/04 00:34:55;;;;;;;13.07;2.78;;;;;;;13.29;100.00;98477.44;5063724;28;20079;-69
2022/09/04 00:37:28;;;;;;;28.60;3.33;;;;;;;13.17;100.00;98476.06;5066075;28;20261;-69
2022/09/04 00:40:39;;;;;;;9.10;2.72;;;;;;;13.17;100.00;98483.13;5079586;28;20320;-69
2022/09/04 00:43:34;;;;;;;18.50;1.92;;;;;;;13.19;100.00;98491.88;5075084;28;20227;-69
2022/09/04 00:46:19;;;;;;;28.67;2.90;;;;;;;13.17;100.00;98484.00;5087952;28;20021;-69
2022/09/04 00:48:53;;;;;;;25.25;2.67;;;;;;;13.22;100.00;98497.91;5088085;28;20358;-69
2022/09/04 00:51:47;;;;;;;21.92;3.10;;;;;;;13.16;100.00;98492.81;5087726;28;20020;-69
2022/09/04 00:54:40;;;;;;;12.50;2.65;;;;;;;13.16;100.00;98494.63;5087644;28;20020;-69
2022/09/04 00:57:38;;;;;;;23.52;2.40;;;;;;;13.14;100.00;98494.66;5087655;28;20413;-69
2022/09/04 01:00:11;;;;;;;21.70;2.17;;;;;;;13.17;100.00;98494.56;5087456;28;20097;-69
2022/09/04 01:02:55;;;;;;;18.08;2.88;;;;;;;13.19;100.00;98497.16;5087777;28;20320;-69
2022/09/04 01:05:44;;;;;;;87.93;3.20;;;;;;;12.97;100.00;98503.06;5087288;28;20251;-69
2022/09/04 01:08:35;;;;;;;67.95;2.90;;;;;;;13.00;100.00;98503.00;5087436;28;20020;-69
2022/09/04 01:11:25;;;;;;;29.92;2.20;;;;;;;12.99;100.00;98505.69;5087031;28;20056;-69
2022/09/04 01:13:50;;;;;;;6.97;2.33;;;;;;;13.02;100.00;98505.59;5087091;28;20100;-69
2022/09/04 01:16:24;;;;;;;13.32;2.10;;;;;;;12.99;100.00;98509.22;5087168;28;20054;-69
2022/09/04 01:19:02;;;;;;;20.83;2.33;;;;;;;12.97;100.00;98508.34;5087108;28;20028;-69
2022/09/04 01:21:58;;;;;;;19.35;2.08;;;;;;;12.96;100.00;98506.63;5087240;28;20031;-69
2022/09/04 01:24:33;;;;;;;16.60;2.20;;;;;;;12.98;100.00;98515.34;5087133;28;20027;-69
2022/09/04 01:27:25;;;;;;;19.15;2.10;;;;;;;12.90;100.00;98517.38;5087071;28;20052;-69
2022/09/04 01:30:08;;;;;;;21.23;2.30;;;;;;;12.83;100.00;98514.97;5086897;28;20024;-69
2022/09/04 01:32:49;;;;;;;5.03;1.50;;;;;;;12.85;100.00;98524.56;5086986;28;20026;-69
2022/09/04 01:35:32;;;;;;;9.98;1.70;;;;;;;12.86;100.00;98521.03;5087119;28;20357;-69
2022/09/04 01:38:10;;;;;;;33.45;2.05;;;;;;;12.84;100.00;98528.13;5086918;28;20065;-69
2022/09/04 01:41:02;;;;;;;6.57;1.80;;;;;;;12.78;100.00;98533.59;5086911;28;20316;-69
2022/09/04 01:43:27;;;;;;;4.85;1.70;;;;;;;12.81;100.00;98533.50;5086790;28;20016;-69
2022/09/04 01:46:16;;;;;;;12.25;1.55;;;;;;;12.75;100.00;98533.69;5086984;28;20020;-69
2022/09/04 01:49:10;;;;;;;18.80;1.92;;;;;;;12.64;100.00;98530.50;5085105;28;20032;-69
2022/09/04 01:51:47;;;;;;;24.20;1.75;;;;;;;12.64;100.00;98533.16;5086643;28;20035;-69
2022/09/04 01:54:18;;;;;;;3.78;1.67;;;;;;;12.68;100.00;98523.34;5086635;28;20024;-69
2022/09/04 01:56:53;;;;;;;14.18;2.20;;;;;;;12.65;100.00;98532.22;5086818;28;20422;-69
2022/09/04 01:59:21;;;;;;;4.03;1.70;;;;;;;12.59;100.00;98527.13;5086437;28;20020;-69
2022/09/04 02:01:53;;;;;;;9.15;1.88;;;;;;;12.51;100.00;98534.41;5086455;28;20219;-69
2022/09/04 02:04:35;;;;;;;2.80;1.60;;;;;;;12.56;100.00;98532.50;5086465;28;20024;-69
2022/09/04 02:07:30;;;;;;;;;;;;;;;12.54;100.00;98531.69;5086798;28;20025;-69
2022/09/04 02:10:04;;;;;;;4.38;2.30;;;;;;;12.47;100.00;98537.19;5072820;28;19912;-69
2022/09/04 02:12:41;;;;;;;3.05;1.95;;;;;;;12.51;100.00;98533.53;5086340;28;20246;-69
2022/09/04 02:15:12;;;;;;;8.23;1.90;;;;;;;12.47;100.00;98538.03;5086392;28;20032;-69
2022/09/04 02:17:46;;;;;;;1.65;1.38;;;;;;;12.48;100.00;98534.50;5086154;28;20020;-69
2022/09/04 02:20:23;;;;;;;3.97;1.65;;;;;;;12.48;100.00;98539.78;5085972;28;20031;-69
2022/09/04 02:23:17;;;;;;;8.35;1.80;;;;;;;12.30;100.00;98526.22;5086096;28;20287;-69
2022/09/04 02:26:06;;;;;;;8.88;1.73;;;;;;;12.27;100.00;98524.53;5086033;28;20117;-69
2022/09/04 02:28:55;;;;;;;7.55;1.70;;;;;;;12.29;100.00;98532.41;5085992;28;20083;-69
2022/09/04 02:31:29;;;;;;;43.65;2.42;;;;;;;12.25;100.00;98531.63;5084995;28;20041;-69
2022/09/04 02:34:07;;;;;;;35.72;2.53;;;;;;;12.15;100.00;98535.41;5085844;28;20148;-69
2022/09/04 02:36:46;;;;;;;18.95;2.38;;;;;;;12.18;100.00;98532.69;5085734;28;20024;-69
2022/09/04 02:39:39;;;;;;;4.82;2.00;;;;;;;12.20;100.00;98538.81;5085754;28;20024;-69
2022/09/04 02:42:23;;;;;;;13.48;2.47;;;;;;;12.24;100.00;98537.81;5085647;28;20044;-69
2022/09/04 02:45:03;;;;;;;12.23;2.00;;;;;;;12.24;100.00;98534.28;5085555;28;20058;-69
2022/09/04 02:47:52;;;;;;;18.75;1.63;;;;;;;12.28;100.00;98536.81;5085631;28;20220;-69
2022/09/04 02:50:48;;;;;;;20.88;1.90;;;;;;;12.25;100.00;98536.88;5085499;28;20028;-69
2022/09/04 02:53:29;;;;;;;6.97;1.52;;;;;;;12.27;100.00;98527.16;5085193;28;20036;-69
2022/09/04 02:56:13;;;;;;;19.85;1.92;;;;;;;12.26;100.00;98536.00;5085312;28;20036;-69
2022/09/04 02:58:56;;;;;;;2.45;1.80;;;;;;;12.25;100.00;98536.88;5085557;28;20021;-69
2022/09/04 03:01:31;;;;;;;2.47;1.63;;;;;;;12.27;100.00;98534.22;5085687;28;20020;-69
2022/09/04 03:04:17;;;;;;;7.60;1.45;;;;;;;12.20;100.00;98538.81;5085282;28;20027;-69
2022/09/04 03:06:57;;;;;;;15.00;1.50;;;;;;;12.18;100.00;98550.31;5085180;28;20206;-69
2022/09/04 03:09:26;;;;;;;13.93;1.52;;;;;;;12.12;100.00;98546.03;5084560;28;20048;-69
2022/09/04 03:12:25;;;;;;;8.10;1.67;;;;;;;12.15;100.00;98550.41;5085059;28;20055;-69
2022/09/04 03:15:02;;;;;;;20.27;1.40;;;;;;;12.14;100.00;98552.16;5060615;28;20040;-69
2022/09/04 03:17:40;;;;;;;7.03;1.30;;;;;;;12.10;100.00;98558.44;5067032;28;20025;-69
2022/09/04 03:20:16;;;;;;;13.25;1.63;;;;;;;11.98;100.00;98552.59;5064905;28;20016;-69
2022/09/04 03:22:54;;;;;;;8.40;1.63;;;;;;;12.03;100.00;98556.00;5064883;28;20024;-69
2022/09/04 03:25:22;;;;;;;11.02;1.58;;;;;;;12.02;100.00;98554.28;5066842;28;20020;-69
2022/09/04 03:27:47;;;;;;;14.73;2.00;;;;;;;12.05;100.00;98560.31;5084743;28;20031;-69
2022/09/04 03:30:13;;;;;;;8.90;1.80;;;;;;;11.99;100.00;98557.84;5084700;28;20099;-69
2022/09/04 03:33:01;;;;;;;9.77;2.08;;;;;;;12.01;100.00;98558.69;5084680;28;20371;-69
2022/09/04 03:35:42;;;;;;;6.07;1.73;;;;;;;11.98;100.00;98558.75;5084835;28;20025;-69
2022/09/04 03:38:16;;;;;;;4.75;1.63;;;;;;;12.04;100.00;98557.72;5084595;28;20021;-69
2022/09/04 03:41:03;;;;;;;4.63;1.60;;;;;;;11.95;100.00;98564.09;5084250;28;20024;-69
2022/09/04 03:44:03;;;;;;;8.05;1.40;;;;;;;11.95;100.00;98557.94;5084554;28;20050;-69
2022/09/04 03:47:04;;;;;;;5.03;1.50;;;;;;;11.94;100.00;98564.13;5084418;28;20024;-69
2022/09/04 03:49:41;;;;;;;1.55;1.33;;;;;;;11.79;100.00;98562.75;5022954;28;20052;-69
2022/09/04 03:52:24;;;;;;;20.33;1.58;;;;;;;11.76;100.00;98565.47;5022901;28;20034;-69
2022/09/04 03:55:02;;;;;;;11.30;1.48;;;;;;;11.77;100.00;98564.56;5022833;28;20045;-69
2022/09/04 03:57:34;;;;;;;1.50;1.15;;;;;;;11.77;100.00;98569.84;5022801;28;20068;-69
2022/09/04 04:00:18;;;;;;;2.97;1.30;;;;;;;11.66;100.00;98566.63;5009393;28;20052;-69
2022/09/04 04:02:46;;;;;;;26.88;1.95;;;;;;;11.62;100.00;98564.97;5003103;28;20097;-69
2022/09/04 04:05:35;;;;;;;9.45;1.60;;;;;;;11.55;100.00;98570.38;5003062;28;20088;-69
2022/09/04 04:08:07;;;;;;;11.80;1.50;;;;;;;11.56;100.00;98580.91;5003157;28;20325;-69
2022/09/04 04:10:55;;;;;;;21.00;1.50;;;;;;;11.52;100.00;98579.22;5020352;28;20164;-69
2022/09/04 04:13:46;;;;;;;1.80;1.48;;;;;;;11.61;100.00;98589.53;5022528;28;20034;-69
2022/09/04 04:16:41;;;;;;;6.18;1.42;;;;;;;11.62;100.00;98583.41;5022405;28;20087;-69
2022/09/04 04:19:21;;;;;;;4.22;1.33;;;;;;;11.59;100.00;98591.38;5017738;28;20030;-69
2022/09/04 04:22:23;;;;;;;5.07;1.48;;;;;;;11.50;100.00;98591.59;5002906;28;20054;-69
2022/09/04 04:25:07;;;;;;;7.95;1.30;;;;;;;11.51;100.00;98598.56;5063890;28;20312;-69
2022/09/04 04:27:56;;;;;;;4.53;1.58;;;;;;;11.58;100.00;98601.94;5063903;28;20131;-69
2022/09/04 04:30:22;;;;;;;8.38;2.58;;;;;;;11.60;100.00;98603.63;5063813;28;20029;-69
2022/09/04 04:32:56;;;;;;;4.43;1.45;;;;;;;11.54;100.00;98608.16;5066326;28;20047;-69
2022/09/04 04:35:36;;;;;;;14.88;1.90;;;;;;;11.55;100.00;98608.13;5083736;28;20091;-69
2022/09/04 04:38:19;;;;;;;7.07;1.45;;;;;;;11.56;100.00;98609.00;5084109;28;20020;-69
2022/09/04 04:41:07;;;;;;;12.90;1.90;;;;;;;11.49;100.00;98610.94;5083851;28;20030;-69
2022/09/04 04:43:53;;;;;;;9.55;1.38;;;;;;;11.48;100.00;98609.19;5054109;28;20099;-69
2022/09/04 04:46:28;;;;;;;7.53;1.45;;;;;;;11.51;100.00;98608.25;5083753;28;20027;-69
2022/09/04 04:49:14;;;;;;;6.78;1.33;;;;;;;11.37;100.00;98613.84;5083865;28;20308;-69
2022/09/04 04:52:04;;;;;;;5.93;1.65;;;;;;;11.40;100.00;98620.81;5083722;28;20258;-69
2022/09/04 04:55:14;;;;;;;17.95;1.88;;;;;;;11.43;100.00;98624.25;5083641;28;20016;-69
2022/09/04 04:57:55;;;;;;;16.15;1.50;;;;;;;11.47;100.00;98628.56;5022118;28;20026;-69
2022/09/04 05:00:28;;;;;;;8.05;1.60;;;;;;;11.46;100.00;98631.22;5081309;28;20036;-69
2022/09/04 05:03:05;;;;;;;30.52;1.50;;;;;;;11.40;100.00;98628.72;5083619;28;20031;-69
2022/09/04 05:05:49;;;;;;;2.67;1.38;;;;;;;11.40;100.00;98626.97;5083673;28;20079;-69
2022/09/04 05:08:46;;;;;;;5.82;1.88;;;;;;;11.34;100.00;98632.38;5083560;28;20028;-69
2022/09/04 05:11:56;;;;;;;9.95;1.35;;;;;;;11.49;100.00;98636.41;5083242;28;20044;-69
2022/09/04 05:14:46;;;;;;;2.47;1.20;;;;;;;11.58;100.00;98631.78;5049789;28;20032;-69
2022/09/04 05:17:48;;;;;;;2.58;1.25;;;;;;;11.67;100.00;98642.16;5083486;28;20024;-69
2022/09/04 05:20:13;;;;;;;2.37;1.40;;;;;;;11.77;100.00;98643.66;5083283;28;20032;-69
2022/09/04 05:22:54;;;;;;;1.65;1.00;;;;;;;11.84;100.00;98645.28;5084347;28;20327;-69
2022/09/04 05:25:26;;;;;;;3.97;0.93;;;;;;;11.87;100.00;98649.59;5087098;28;20020;-69
2022/09/04 05:27:54;;;;;;;1.42;0.85;;;;;;;11.94;100.00;98652.06;5087040;28;20347;-69
2022/09/04 05:30:55;;;;;;;3.67;1.33;;;;;;;11.95;100.00;98651.16;5086909;28;20091;-69
2022/09/04 05:33:29;;;;;;;1.02;0.80;;;;;;;12.18;100.00;98650.59;5062436;28;20082;-69
2022/09/04 05:36:27;;;;;;;1.17;1.02;;;;;;;12.88;100.00;98661.84;5086853;28;20271;-69
2022/09/04 05:39:04;;;;;;;2.03;1.23;;;;;;;13.40;100.00;98655.06;5074619;28;20429;-69
2022/09/04 05:41:48;;;;;;;0.77;0.60;;;;;;;13.98;100.00;98655.00;5086885;28;20126;-69
2022/09/04 05:44:14;;;;;;;1.20;0.80;;;;;;;14.63;100.00;98669.56;5086809;28;20314;-69
2022/09/04 05:47:13;;;;;;;1.58;0.95;;;;;;;15.23;96.92;98670.84;5086753;28;20021;-69
2022/09/04 05:50:11;;;;;;;1.08;0.98;;;;;;;16.13;91.22;98661.13;5086717;28;20071;-69
2022/09/04 05:53:11;;;;;;;2.63;0.88;;;;;;;16.48;88.42;98668.50;5086698;28;20040;-69
2022/09/04 05:55:52;;;;;;;4.32;0.70;;;;;;;17.20;84.49;98670.63;5086577;28;20076;-69
2022/09/04 05:58:24;;;;;;;5.78;0.90;;;;;;;17.65;82.97;98674.81;5086528;28;20016;-69
2022/09/04 06:01:14;;;;;;;2.47;1.20;;;;;;;17.80;80.19;98679.38;5086220;28;20099;-69
2022/09/04 06:04:10;;;;;;;2.20;1.15;;;;;;;18.20;80.82;98692.53;5086484;28;20370;-69
2022/09/04 06:07:03;;;;;;;2.22;1.20;;;;;;;18.75;78.58;98702.19;5086447;28;20067;-69
2022/09/04 06:10:07;;;;;;;4.60;1.73;;;;;;;19.02;75.22;98690.09;5085384;28;20041;-69
2022/09/04 06:12:50;;;;;;;6.85;1.30;;;;;;;19.11;75.23;98689.63;5054172;28;20098;-69
2022/09/04 06:15:37;;;;;;;3.15;1.40;;;;;;;19.63;73.72;98691.25;5085200;28;20193;-69
2022/09/04 06:18:38;;;;;;;3.28;1.05;;;;;;;20.28;73.87;98698.28;5085244;28;20028;-69
2022/09/04 06:21:13;;;;;;;2.53;1.42;;;;;;;20.89;71.25;98707.97;5085195;28;20032;-69
2022/09/04 06:24:02;;;;;;;3.42;1.63;;;;;;;21.33;69.42;98717.88;5084729;28;20201;-69
2022/09/04 06:26:49;;;;;;;9.88;1.90;;;;;;;21.44;71.22;98724.28;5085108;28;20028;-69
2022/09/04 06:29:26;;;;;;;7.10;2.15;;;;;;;21.79;66.39;98714.94;5084819;28;20024;-69
2022/09/04 06:32:24;;;;;;;15.43;2.70;;;;;;;22.10;68.44;98732.63;5084933;28;20078;-69
2022/09/04 06:35:31;;;;;;;9.57;3.55;;;;;;;22.70;64.86;98742.06;5079625;28;20037;-69
2022/09/04 06:38:23;;;;;;;11.20;3.65;;;;;;;22.45;67.72;98728.50;5084606;28;20028;-69
2022/09/04 06:41:07;;;;;;;10.07;4.05;;;;;;;22.98;65.88;98736.56;5084824;28;20239;-69
2022/09/04 06:43:45;;;;;;;15.40;4.50;;;;;;;23.42;64.06;98723.69;5084730;28;20024;-69
2022/09/04 06:46:37;;;;;;;17.70;5.68;;;;;;;23.74;63.35;98727.66;5084669;28;20020;-69
2022/09/04 06:49:28;;;;;;;11.25;4.07;;;;;;;24.42;62.48;98728.94;5084243;28;20032;-69
2022/09/04 06:52:31;;;;;;;7.05;3.17;;;;;;;24.83;61.84;98729.44;5084286;28;20028;-69
2022/09/04 06:55:00;;;;;;;5.03;2.55;;;;;;;25.35;60.86;98720.09;5084486;28;20025;-69
2022/09/04 06:57:49;;;;;;;4.95;2.83;;;;;;;24.77;61.14;98720.97;5084484;28;20062;-69
2022/09/04 07:00:18;;;;;;;7.10;2.80;;;;;;;24.27;62.23;98713.91;5084289;28;20029;-69
2022/09/04 07:02:57;;;;;;;6.90;2.70;;;;;;;24.34;63.97;98725.09;5083693;28;20020;-69
2022/09/04 07:05:34;;;;;;;7.88;2.70;;;;;;;25.08;61.36;98729.28;5084251;28;20020;-69
2022/09/04 07:08:21;;;;;;;12.68;2.78;;;;;;;24.79;61.96;98732.47;5084224;28;20027;-69
2022/09/04 07:11:15;;;;;;;9.93;2.60;;;;;;;24.91;62.79;98737.81;5084066;28;20363;-69
2022/09/04 07:13:49;;;;;;;12.88;2.85;;;;;;;26.06;59.37;98734.16;5084059;28;20024;-69
2022/09/04 07:16:36;;;;;;;6.80;2.08;;;;;;;26.00;61.12;98735.50;5083543;28;20032;-69
2022/09/04 07:19:12;;;;;;;7.65;2.22;;;;;;;26.41;60.33;98740.25;5084181;28;20075;-69
2022/09/04 07:22:00;;;;;;;5.85;2.60;;;;;;;26.54;59.70;98741.00;5083976;28;20193;-69
2022/09/04 07:24:48;;;;;;;4.45;2.45;;;;;;;26.86;59.49;98742.75;5084234;28;20371;-69
2022/09/04 07:27:43;;;;;;;4.22;2.20;;;;;;;27.37;59.13;98748.34;5083886;28;20036;-69
2022/09/04 07:30:12;;;;;;;5.75;1.83;;;;;;;27.61;58.93;98740.81;5058719;28;20213;-70
2022/09/04 07:33:05;;;;;;;6.57;2.60;;;;;;;28.27;59.26;98748.44;5063761;28;20076;-70
2022/09/04 07:35:40;;;;;;;3.78;2.40;;;;;;;28.06;58.23;98742.22;5063667;28;20023;-70
2022/09/04 07:38:20;;;;;;;6.15;2.88;;;;;;;27.89;57.61;98745.56;5078097;28;20032;-70
2022/09/04 07:41:03;;;;;;;4.18;3.03;;;;;;;28.73;55.94;98754.16;5083907;28;20017;-70
2022/09/04 07:43:28;;;;;;;10.68;3.70;;;;;;;28.58;55.95;98752.88;5083612;28;20046;-70
2022/09/04 07:46:05;;;;;;;6.38;3.42;;;;;;;29.06;56.44;98764.66;5083559;28;20012;-70
2022/09/04 07:48:46;;;;;;;6.07;3.38;;;;;;;28.48;56.00;98760.13;5083514;28;20075;-69
2022/09/04 07:51:16;;;;;;;8.80;3.00;;;;;;;29.06;54.20;98761.09;5083524;28;20024;-71
2022/09/04 07:53:48;;;;;;;9.38;3.30;;;;;;;29.43;55.51;98764.81;5083466;28;20085;-71
2022/09/04 07:56:33;;;;;;;;;;;;;;;30.04;51.47;98760.72;5077448;28;20032;-71
2022/09/04 07:59:12;;;;;;;9.48;4.38;;;;;;;29.26;53.63;98772.81;5074205;28;20122;-71
2022/09/04 08:02:12;;;;;;;7.55;3.70;;;;;;;29.31;54.54;98770.50;5073545;28;20032;-71
2022/09/04 08:04:44;;;;;;;6.00;3.45;;;;;;;29.48;54.38;98777.94;5072411;28;20052;-71
2022/09/04 08:07:19;;;;;;;6.68;4.07;;;;;;;29.72;52.08;98770.22;5068208;28;20375;-71
2022/09/04 08:10:18;;;;;;;5.50;3.10;;;;;;;29.79;53.02;98776.75;5064133;28;20348;-71
2022/09/04 08:13:14;;;;;;;5.90;3.15;;;;;;;30.29;50.16;98770.94;5064130;28;20027;-71
2022/09/04 08:15:42;;;;;;;6.85;3.60;;;;;;;28.55;53.63;98766.69;5063922;28;20092;-71
2022/09/04 08:18:35;;;;;;;4.38;3.25;;;;;;;29.63;52.83;98776.50;5064044;28;20021;-71
2022/09/04 08:21:27;;;;;;;5.05;2.75;;;;;;;30.01;51.67;98780.00;5064206;28;20097;-71
2022/09/04 08:24:39;;;;;;;7.30;3.22;;;;;;;29.32;51.62;98783.09;5064203;28;20316;-70
2022/09/04 08:27:22;;;;;;;6.63;3.33;;;;;;;29.59;52.86;98786.78;5064181;28;20017;-70
2022/09/04 08:30:08;;;;;;;6.07;3.50;;;;;;;30.00;50.94;98791.00;5063878;28;20055;-70
2022/09/04 08:32:58;;;;;;;8.20;2.88;;;;;;;30.31;50.28;98789.81;5064071;28;20309;-70
2022/09/04 08:35:26;;;;;;;5.40;2.92;;;;;;;29.98;49.32;98782.16;5063738;28;20377;-70
2022/09/04 08:38:17;;;;;;;7.53;3.00;;;;;;;30.01;50.52;98790.88;5063799;28;20021;-70
2022/09/04 08:40:45;;;;;;;4.85;2.60;;;;;;;30.83;48.79;98797.28;5063770;28;20028;-70
2022/09/04 08:43:55;;;;;;;10.80;3.55;;;;;;;30.78;48.20;98788.75;5063743;28;20289;-70
2022/09/04 08:46:47;;;;;;;11.13;3.10;;;;;;;31.04;49.15;98800.59;5035241;28;20043;-70
2022/09/04 08:49:12;;;;;;;6.28;3.10;;;;;;;30.73;49.52;98801.94;5063709;28;20024;-70
2022/09/04 08:52:13;;;;;;;10.27;3.97;;;;;;;31.10;48.07;98797.28;5063673;28;20084;-70
2022/09/04 08:54:53;;;;;;;8.40;3.30;;;;;;;31.19;48.54;98799.03;5039232;28;20036;-70
2022/09/04 08:57:25;;;;;;;5.07;3.15;;;;;;;29.96;49.97;98797.75;5064106;28;20337;-70
2022/09/04 09:00:09;;;;;;;3.85;3.03;;;;;;;29.32;52.68;98799.34;5067514;28;20059;-70
2022/09/04 09:02:53;;;;;;;8.07;2.95;;;;;;;28.83;53.88;98797.53;5067587;28;20059;-70
2022/09/04 09:05:55;;;;;;;6.97;3.55;;;;;;;28.83;53.77;98798.41;5066704;28;20024;-70
2022/09/04 09:08:27;;;;;;;11.43;3.08;;;;;;;29.18;52.37;98801.50;5067476;28;20036;-70
2022/09/04 09:11:18;;;;;;;9.80;3.85;;;;;;;29.23;52.26;98802.91;5067240;28;20051;-70
2022/09/04 09:14:11;;;;;;;5.45;3.30;;;;;;;30.22;50.09;98807.84;5067395;28;20104;-70
2022/09/04 09:16:51;;;;;;;5.80;2.95;;;;;;;31.25;49.12;98813.91;5067232;28;20059;-70
2022/09/04 09:19:25;;;;;;;6.10;3.10;;;;;;;30.12;48.72;98806.13;5067286;28;20043;-70
2022/09/04 09:22:12;;;;;;;11.20;2.80;;;;;;;29.30;51.25;98804.06;5067189;28;20025;-70
2022/09/04 09:25:05;;;;;;;9.23;2.45;;;;;;;28.96;51.27;98809.84;5067162;28;20021;-70
2022/09/04 09:27:53;;;;;;;4.45;2.42;;;;;;;29.24;51.25;98809.03;5067370;28;20092;-70
2022/09/04 09:30:22;;;;;;;5.82;2.50;;;;;;;29.61;51.70;98800.19;5067089;28;20031;-70
2022/09/04 09:32:48;;;;;;;3.83;2.10;;;;;;;29.52;49.73;98790.22;5067021;28;20084;-70
2022/09/04 09:35:54;;;;;;;6.38;2.47;;;;;;;30.03;49.63;98790.72;5066814;28;20036;-70
2022/09/04 09:38:38;;;;;;;10.82;2.25;;;;;;;29.56;49.50;98794.34;5066910;28;20320;-69
2022/09/04 09:41:38;;;;;;;7.65;2.60;;;;;;;30.05;48.72;98789.56;5066914;28;20025;-69
2022/09/04 09:44:34;;;;;;;5.57;2.30;;;;;;;30.24;48.57;98788.69;5066822;28;20025;-69
2022/09/04 09:47:08;;;;;;;12.52;2.10;;;;;;;30.00;50.28;98788.31;5066867;28;20021;-69
2022/09/04 09:49:40;;;;;;;7.78;2.00;;;;;;;31.19;48.49;98788.16;5066934;28;20019;-69
2022/09/04 09:52:22;;;;;;;4.72;2.00;;;;;;;32.08;46.14;98787.94;5066601;28;20025;-69
2022/09/04 09:55:09;;;;;;;4.00;2.20;;;;;;;31.12;45.71;98793.38;5066526;28;20036;-69
2022/09/04 09:57:40;;;;;;;8.88;1.75;;;;;;;29.70;48.82;98777.66;5066500;28;20020;-69
2022/09/04 10:00:16;;;;;;;5.50;2.30;;;;;;;28.79;51.01;98783.41;5066709;28;20032;-69
2022/09/04 10:03:00;;;;;;;3.72;2.22;;;;;;;28.04;52.63;98776.72;5066691;28;20096;-69
2022/09/04 10:05:44;;;;;;;2.15;1.83;;;;;;;29.27;49.19;98785.34;5066386;28;20025;-69
2022/09/04 10:08:15;;;;;;;8.45;1.92;;;;;;;30.13;46.55;98781.56;5066302;28;20091;-69
2022/09/04 10:11:07;;;;;;;4.57;2.00;;;;;;;28.74;48.90;98784.84;5065092;28;20098;-69
2022/09/04 10:13:46;;;;;;;4.70;1.90;;;;;;;28.98;45.96;98775.31;5066260;28;20021;-69
2022/09/04 10:16:49;;;;;;;6.43;1.65;;;;;;;27.53;47.19;98781.19;5066117;28;20021;-69
2022/09/04 10:19:41;;;;;;;5.57;1.80;;;;;;;27.23;48.24;98781.06;5066132;28;20025;-69
2022/09/04 10:22:22;;;;;;;4.35;2.00;;;;;;;28.80;46.63;98782.44;5066090;28;20025;-69
2022/09/04 10:25:24;;;;;;;5.78;1.98;;;;;;;29.90;43.14;98780.19;5066033;28;20074;-69
2022/09/04 10:28:20;;;;;;;4.93;1.88;;;;;;;29.95;44.04;98779.72;5065974;28;20295;-69
2022/09/04 10:31:10;;;;;;;4.55;1.70;;;;;;;29.89;45.69;98780.34;5066182;28;20059;-69
2022/09/04 10:34:09;;;;;;;7.28;2.10;;;;;;;28.50;47.16;98771.66;5065870;28;20074;-69
2022/09/04 10:36:53;;;;;;;2.72;1.60;;;;;;;29.66;45.93;98785.22;5065801;28;20039;-69
2022/09/04 10:42:42;;;;;;;4.07;2.15;;;;;;;29.04;45.37;98785.63;5065704;28;20028;-69
2022/09/04 10:45:20;;;;;;;4.88;2.15;;;;;;;28.25;48.13;98768.53;5065620;28;20024;-69
2022/09/04 10:48:17;;;;;;;2.97;1.75;;;;;;;27.43;49.82;98769.47;5065857;28;20059;-69
2022/09/04 10:51:14;;;;;;;4.90;2.03;;;;;;;26.78;50.41;98760.59;5083927;28;20025;-69
2022/09/04 10:54:29;;;;;;;4.60;1.92;;;;;;;27.47;50.35;98770.91;5085794;28;20031;-69
2022/09/04 10:57:06;;;;;;;3.10;2.05;;;;;;;27.20;51.77;98771.38;5085369;28;20024;-69
2022/09/04 10:59:59;;;;;;;4.13;1.95;;;;;;;27.83;51.55;98773.13;5085171;28;20073;-69
2022/09/04 11:02:43;;;;;;;5.63;2.17;;;;;;;29.35;46.41;98766.53;5085305;28;20056;-69
2022/09/04 11:05:39;;;;;;;4.97;2.00;;;;;;;30.35;45.33;98764.91;5083648;28;20024;-69
2022/09/04 11:08:39;;;;;;;2.67;1.58;;;;;;;30.28;43.36;98760.22;5083590;28;20078;-69
2022/09/04 11:11:32;;;;;;;10.27;2.30;;;;;;;29.98;43.55;98755.88;5083586;28;20359;-69
2022/09/04 11:14:02;;;;;;;4.72;2.05;;;;;;;30.20;43.63;98751.97;5084183;28;20020;-69
2022/09/04 11:16:49;;;;;;;5.80;2.15;;;;;;;30.01;42.84;98755.56;5083471;28;20469;-69
2022/09/04 11:19:32;;;;;;;3.70;1.73;;;;;;;30.72;43.31;98762.16;5083645;28;20035;-69
2022/09/04 11:22:23;;;;;;;3.38;1.75;;;;;;;30.68;42.74;98760.72;5083764;28;20319;-69
2022/09/04 11:25:02;;;;;;;3.03;1.90;;;;;;;29.95;41.37;98741.72;5083764;28;20024;-69
2022/09/04 11:27:48;;;;;;;5.97;1.80;;;;;;;29.92;43.73;98742.00;5083684;28;20250;-69
2022/09/04 11:30:20;;;;;;;4.03;1.80;;;;;;;30.12;43.86;98743.69;5083449;28;20367;-69
2022/09/04 11:33:04;;;;;;;5.25;2.00;;;;;;;30.15;42.96;98740.66;5083408;28;20052;-69
2022/09/04 11:36:07;;;;;;;9.20;2.92;;;;;;;29.75;43.71;98737.38;5083242;28;20024;-69
2022/09/04 11:38:44;;;;;;;5.57;2.15;;;;;;;29.23;44.61;98742.25;5083315;28;20028;-69
2022/09/04 11:41:27;;;;;;;4.30;2.17;;;;;;;29.08;44.75;98743.69;5083315;28;20047;-69
2022/09/04 11:44:26;;;;;;;4.55;2.15;;;;;;;28.81;43.87;98740.78;5075370;28;20235;-69
2022/09/04 11:47:07;;;;;;;3.47;1.90;;;;;;;28.77;41.89;98728.53;5083040;28;20087;-69
2022/09/04 11:50:10;;;;;;;4.88;2.10;;;;;;;28.66;42.65;98731.34;5083159;28;20028;-69
2022/09/04 11:53:13;;;;;;;3.78;2.35;;;;;;;28.22;44.58;98730.91;5083113;28;20051;-69
2022/09/04 11:55:57;;;;;;;5.47;2.20;;;;;;;28.37;46.03;98738.50;5082704;28;20350;-69
2022/09/04 11:58:40;;;;;;;5.93;2.28;;;;;;;28.14;46.71;98734.31;5082800;28;20053;-69
2022/09/04 12:01:15;;;;;;;4.45;2.50;;;;;;;27.97;45.21;98737.63;5076703;28;20045;-69
2022/09/04 12:04:13;;;;;;;7.30;1.70;;;;;;;28.01;44.52;98741.78;5083296;28;20091;-69
2022/09/04 12:06:53;;;;;;;2.92;1.80;;;;;;;27.97;46.44;98748.44;5071501;28;20038;-69
2022/09/04 12:09:45;;;;;;;3.88;1.73;;;;;;;27.88;42.55;98746.56;5082284;28;20294;-69
2022/09/04 12:12:42;;;;;;;3.08;1.50;;;;;;;28.07;41.44;98738.56;5082956;28;20283;-69
2022/09/04 12:15:26;;;;;;;4.65;1.92;;;;;;;27.93;43.11;98741.59;5082699;28;20276;-69
2022/09/04 12:18:25;;;;;;;3.85;1.80;;;;;;;27.81;44.36;98737.22;5082941;28;20038;-69
2022/09/04 12:21:41;;;;;;;4.93;1.85;;;;;;;27.92;44.63;98747.16;5082740;28;20086;-69
2022/09/04 12:24:19;;;;;;;3.08;1.73;;;;;;;27.39;43.16;98740.94;5040260;28;20044;-69
2022/09/04 12:27:06;;;;;;;3.78;1.80;;;;;;;27.32;44.21;98738.91;5082618;28;20080;-69
2022/09/04 12:29:41;;;;;;;7.57;2.08;;;;;;;27.32;45.62;98744.31;5082728;28;20032;-69
2022/09/04 12:32:21;;;;;;;5.32;1.63;;;;;;;27.37;43.90;98748.34;5081892;28;20088;-69
2022/09/04 12:34:53;;;;;;;5.35;2.28;;;;;;;27.00;47.04;98738.91;5083025;28;20028;-69
2022/09/04 12:37:42;;;;;;;5.03;1.90;;;;;;;26.75;47.85;98744.63;5083691;28;20111;-69
2022/09/04 12:40:40;;;;;;;2.53;1.67;;;;;;;26.76;45.07;98740.94;5083857;28;20035;-69
2022/09/04 12:43:31;;;;;;;5.30;2.05;;;;;;;26.76;43.54;98730.13;5083826;28;20041;-69
2022/09/04 12:46:09;;;;;;;4.20;1.70;;;;;;;26.76;44.57;98731.00;5054355;28;20039;-69
2022/09/04 12:48:49;;;;;;;5.35;1.75;;;;;;;26.97;44.82;98750.84;5083366;28;20231;-69
2022/09/04 12:51:23;;;;;;;5.07;1.60;;;;;;;26.91;43.00;98742.38;5083468;28;20021;-69
2022/09/04 12:54:19;;;;;;;7.45;2.05;;;;;;;27.07;42.76;98750.91;5083556;28;20328;-69